Richmond, VA (23229)

9:53 AM EST on January 27, 2015 (GMT -0500)
Windsor Farms | Change Station
CLOSE
Current Station
Personal Weather Station
Location: Richmond, VA
Elevation: 242 ft
Nearby Weather Stations

Elev 242 ft 37.56 °N, 77.50 °W | Updated 3 minutes ago

Snow
Snow
29.8 °F
Feels Like 30 °F
N
1.0
Wind Variable Wind from NE
Gusts 1.0 mph

Today
High -- | Low -- °F
--% Chance of Precip.
Yesterday
High -- | Low -- °F
Precip. -- in
7:17 AM 5:28 PM
First Quarter, 55% visible
Pressure 29.82 in
Visibility 9.0 miles
Clouds Scattered Clouds 2000 ft
Mostly Cloudy 3900 ft
Overcast 6000 ft
Windchill 30 °F
Dew Point 27 °F
Humidity 89%
Rainfall 0.00 in
Snow Depth Not available.
UV 0 out of 12
Pollen .40 out of 12
Air Quality Not available.
Flu Activity Not available.
SPECI KRIC 271429Z COR 35009KT 9SM -SN SCT020 BKN039 OVC060 00/M03 A2982 RMK AO2 P0000

More Conditions Fewer Conditions

Pressure 29.82 in
Visibility 9.0 miles
Clouds Scattered Clouds 2000 ft
Mostly Cloudy 3900 ft
Overcast 6000 ft
Windchill 30 °F
Dew Point 27 °F
Humidity 89%
Rainfall 0.00 in
Snow Depth Not available.
UV 0 out of 12
Pollen .40 out of 12
Air Quality Not available.
Flu Activity Not available.
SPECI KRIC 271429Z COR 35009KT 9SM -SN SCT020 BKN039 OVC060 00/M03 A2982 RMK AO2 P0000

More Conditions Fewer Conditions

10-Day Weather Forecast

Almanac

Astronomy

Jan. 27, 2015 Rise Set
Actual Time
Civil Twilight
Nautical Twilight
Astronomical Twilight
Moon
Length of Visible Light
Length of Day
Tomorrow will be .
, % of the Moon is Illuminated

Today's Extremes

State Highs State Lows

Community

WunderPhotos

Upload Photos

1,790,655 photos uploaded!

WunderBlogs® & News

Nearby

Air Quality

  Air Quality AQ Index Pollutant
Not available.

Snow Depth

Station Depth Elevation

Earthquake Activity

City Distance Mag. Time & Date
Minimum magnitude displayed is 2.5.

Coastal Water Temperatures

Place Temperature

Nearby Weather Stations